sensor_id;sensor_type;location;lat;lon;timestamp;pressure;altitude;pressure_sealevel;temperature;humidity
82379;BME280;72008;48.140;11.614;2023-09-19T00:00:22;95164.47;;;16.87;69.22
82379;BME280;72008;48.140;11.614;2023-09-19T00:01:22;95166.41;;;16.79;69.90
82379;BME280;72008;48.140;11.614;2023-09-19T00:02:23;95170.75;;;16.77;69.80
82379;BME280;72008;48.140;11.614;2023-09-19T00:03:23;95168.03;;;16.80;69.74
82379;BME280;72008;48.140;11.614;2023-09-19T00:04:24;95164.84;;;16.86;68.89
82379;BME280;72008;48.140;11.614;2023-09-19T00:05:29;95165.63;;;16.82;69.75
82379;BME280;72008;48.140;11.614;2023-09-19T00:06:30;95162.50;;;16.88;69.41
82379;BME280;72008;48.140;11.614;2023-09-19T00:07:30;95163.31;;;16.95;67.66
82379;BME280;72008;48.140;11.614;2023-09-19T00:08:31;95159.78;;;16.95;68.11
82379;BME280;72008;48.140;11.614;2023-09-19T00:09:31;95163.31;;;16.99;68.70
82379;BME280;72008;48.140;11.614;2023-09-19T00:10:33;95157.78;;;17.06;68.14
82379;BME280;72008;48.140;11.614;2023-09-19T00:11:33;95157.81;;;17.10;68.11
82379;BME280;72008;48.140;11.614;2023-09-19T00:12:34;95159.78;;;17.13;67.33
82379;BME280;72008;48.140;11.614;2023-09-19T00:13:34;95160.97;;;17.12;68.09
82379;BME280;72008;48.140;11.614;2023-09-19T00:14:35;95164.50;;;17.12;67.46
82379;BME280;72008;48.140;11.614;2023-09-19T00:15:40;95161.75;;;17.05;67.32
82379;BME280;72008;48.140;11.614;2023-09-19T00:16:41;95158.19;;;17.08;68.08
82379;BME280;72008;48.140;11.614;2023-09-19T00:17:41;95166.13;;;17.10;67.63
82379;BME280;72008;48.140;11.614;2023-09-19T00:18:41;95160.97;;;17.12;68.85
82379;BME280;72008;48.140;11.614;2023-09-19T00:19:42;95164.13;;;17.10;68.59
82379;BME280;72008;48.140;11.614;2023-09-19T00:20:42;95171.22;;;17.08;67.64
82379;BME280;72008;48.140;11.614;2023-09-19T00:21:43;95164.13;;;17.14;68.42
82379;BME280;72008;48.140;11.614;2023-09-19T00:22:43;95168.06;;;17.09;67.37
82379;BME280;72008;48.140;11.614;2023-09-19T00:23:44;95169.25;;;17.08;67.63
82379;BME280;72008;48.140;11.614;2023-09-19T00:24:44;95168.88;;;17.10;67.02
82379;BME280;72008;48.140;11.614;2023-09-19T00:25:45;95177.97;;;17.14;68.09
82379;BME280;72008;48.140;11.614;2023-09-19T00:26:45;95171.25;;;17.04;67.12
82379;BME280;72008;48.140;11.614;2023-09-19T00:27:47;95169.63;;;17.06;66.84
82379;BME280;72008;48.140;11.614;2023-09-19T00:28:47;95175.19;;;17.10;67.24
82379;BME280;72008;48.140;11.614;2023-09-19T00:29:47;95174.41;;;17.13;67.11
82379;BME280;72008;48.140;11.614;2023-09-19T00:30:48;95177.59;;;17.19;67.64
82379;BME280;72008;48.140;11.614;2023-09-19T00:31:48;95178.78;;;17.25;67.79
82379;BME280;72008;48.140;11.614;2023-09-19T00:32:50;95177.56;;;17.29;66.55
82379;BME280;72008;48.140;11.614;2023-09-19T00:33:51;95178.38;;;17.26;66.97
82379;BME280;72008;48.140;11.614;2023-09-19T00:34:51;95178.78;;;17.25;66.14
82379;BME280;72008;48.140;11.614;2023-09-19T00:35:53;95176.75;;;17.18;66.07
82379;BME280;72008;48.140;11.614;2023-09-19T00:36:53;95183.09;;;17.22;66.81
82379;BME280;72008;48.140;11.614;2023-09-19T00:37:55;95179.53;;;17.18;67.72
82379;BME280;72008;48.140;11.614;2023-09-19T00:38:56;95177.16;;;17.20;67.19
82379;BME280;72008;48.140;11.614;2023-09-19T00:39:56;95175.59;;;17.23;66.85
82379;BME280;72008;48.140;11.614;2023-09-19T00:40:56;95176.38;;;17.16;66.63
82379;BME280;72008;48.140;11.614;2023-09-19T00:41:57;95175.97;;;17.07;67.40
82379;BME280;72008;48.140;11.614;2023-09-19T00:42:58;95170.81;;;17.09;67.88
82379;BME280;72008;48.140;11.614;2023-09-19T00:43:58;95175.97;;;17.07;68.04
82379;BME280;72008;48.140;11.614;2023-09-19T00:44:59;95172.81;;;17.09;68.22
82379;BME280;72008;48.140;11.614;2023-09-19T00:46:00;95176.38;;;17.13;68.14
82379;BME280;72008;48.140;11.614;2023-09-19T00:47:01;95170.81;;;17.02;68.57
82379;BME280;72008;48.140;11.614;2023-09-19T00:48:01;95169.63;;;16.96;68.26
82379;BME280;72008;48.140;11.614;2023-09-19T00:49:02;95179.53;;;17.04;68.23
82379;BME280;72008;48.140;11.614;2023-09-19T00:50:04;95175.94;;;17.03;68.53
82379;BME280;72008;48.140;11.614;2023-09-19T00:51:05;95177.16;;;17.06;68.32
82379;BME280;72008;48.140;11.614;2023-09-19T00:52:06;95180.31;;;17.12;68.29
82379;BME280;72008;48.140;11.614;2023-09-19T00:53:07;95179.53;;;17.04;68.02
82379;BME280;72008;48.140;11.614;2023-09-19T00:54:08;95179.91;;;16.99;69.73
82379;BME280;72008;48.140;11.614;2023-09-19T00:55:10;95183.88;;;17.01;68.44
82379;BME280;72008;48.140;11.614;2023-09-19T00:56:11;95183.47;;;17.03;68.81
82379;BME280;72008;48.140;11.614;2023-09-19T00:57:11;95196.50;;;16.99;69.48
82379;BME280;72008;48.140;11.614;2023-09-19T00:58:12;95187.03;;;17.07;68.31
82379;BME280;72008;48.140;11.614;2023-09-19T01:00:50;95200.47;;;16.98;69.28
82379;BME280;72008;48.140;11.614;2023-09-19T01:01:51;95187.41;;;17.05;68.91
82379;BME280;72008;48.140;11.614;2023-09-19T01:02:52;95191.75;;;17.06;70.11
82379;BME280;72008;48.140;11.614;2023-09-19T01:03:52;95194.94;;;17.05;70.54
82379;BME280;72008;48.140;11.614;2023-09-19T01:04:53;95197.31;;;17.10;68.83
82379;BME280;72008;48.140;11.614;2023-09-19T01:05:53;95197.69;;;17.12;70.27
82379;BME280;72008;48.140;11.614;2023-09-19T01:06:54;95194.16;;;17.12;69.30
82379;BME280;72008;48.140;11.614;2023-09-19T01:07:55;95205.63;;;17.10;68.62
82379;BME280;72008;48.140;11.614;2023-09-19T01:08:55;95206.78;;;17.02;69.30
82379;BME280;72008;48.140;11.614;2023-09-19T01:10:00;95204.38;;;16.97;68.65
82379;BME280;72008;48.140;11.614;2023-09-19T01:11:38;95200.47;;;16.98;69.25
82379;BME280;72008;48.140;11.614;2023-09-19T01:13:55;95210.31;;;16.99;69.86
82379;BME280;72008;48.140;11.614;2023-09-19T01:15:05;95207.13;;;16.86;69.69
82379;BME280;72008;48.140;11.614;2023-09-19T01:16:17;95213.03;;;16.88;69.80
82379;BME280;72008;48.140;11.614;2023-09-19T01:18:35;95215.06;;;16.95;69.85
82379;BME280;72008;48.140;11.614;2023-09-19T01:20:41;95207.56;;;16.99;68.99
82379;BME280;72008;48.140;11.614;2023-09-19T01:26:11;95215.06;;;16.95;69.74
82379;BME280;72008;48.140;11.614;2023-09-19T01:30:18;95224.94;;;16.96;70.45
82379;BME280;72008;48.140;11.614;2023-09-19T01:31:21;95226.50;;;17.00;69.64
82379;BME280;72008;48.140;11.614;2023-09-19T01:32:23;95234.84;;;17.04;70.46
82379;BME280;72008;48.140;11.614;2023-09-19T01:33:24;95231.25;;;17.00;69.32
82379;BME280;72008;48.140;11.614;2023-09-19T01:34:24;95233.63;;;16.98;70.44
82379;BME280;72008;48.140;11.614;2023-09-19T01:35:25;95229.25;;;16.93;69.34
82379;BME280;72008;48.140;11.614;2023-09-19T01:36:31;95232.81;;;16.94;69.64
82379;BME280;72008;48.140;11.614;2023-09-19T01:37:31;95234.41;;;16.95;69.70
82379;BME280;72008;48.140;11.614;2023-09-19T01:38:32;95230.47;;;16.96;69.34
82379;BME280;72008;48.140;11.614;2023-09-19T01:39:32;95228.88;;;16.98;68.91
82379;BME280;72008;48.140;11.614;2023-09-19T01:40:41;95232.03;;;17.00;68.61
82379;BME280;72008;48.140;11.614;2023-09-19T01:43:08;95236.81;;;17.07;69.73
82379;BME280;72008;48.140;11.614;2023-09-19T01:44:19;95236.41;;;17.05;68.91
82379;BME280;72008;48.140;11.614;2023-09-19T01:46:32;95241.16;;;17.01;69.47
82379;BME280;72008;48.140;11.614;2023-09-19T01:47:46;95249.03;;;17.02;69.08
82379;BME280;72008;48.140;11.614;2023-09-19T01:51:21;95246.69;;;17.12;68.82
82379;BME280;72008;48.140;11.614;2023-09-19T01:52:30;95246.25;;;16.99;69.45
82379;BME280;72008;48.140;11.614;2023-09-19T01:53:53;95248.66;;;17.08;70.35
82379;BME280;72008;48.140;11.614;2023-09-19T01:55:04;95253.38;;;17.03;69.86
82379;BME280;72008;48.140;11.614;2023-09-19T01:56:08;95247.88;;;17.11;68.07
82379;BME280;72008;48.140;11.614;2023-09-19T01:57:27;95247.88;;;17.07;69.61
82379;BME280;72008;48.140;11.614;2023-09-19T01:58:44;95249.81;;;17.06;69.23
82379;BME280;72008;48.140;11.614;2023-09-19T02:00:14;95247.47;;;17.05;68.03
82379;BME280;72008;48.140;11.614;2023-09-19T02:01:19;95250.25;;;17.12;68.15
82379;BME280;72008;48.140;11.614;2023-09-19T02:02:22;95245.50;;;17.09;68.30
82379;BME280;72008;48.140;11.614;2023-09-19T02:03:24;95239.59;;;17.07;68.75
82379;BME280;72008;48.140;11.614;2023-09-19T02:04:26;95250.25;;;17.09;68.84
82379;BME280;72008;48.140;11.614;2023-09-19T02:05:26;95244.72;;;17.12;68.71
82379;BME280;72008;48.140;11.614;2023-09-19T02:06:27;95239.97;;;17.09;67.98
82379;BME280;72008;48.140;11.614;2023-09-19T02:07:27;95241.94;;;17.01;68.51
82379;BME280;72008;48.140;11.614;2023-09-19T02:08:28;95242.34;;;17.07;67.82
82379;BME280;72008;48.140;11.614;2023-09-19T02:09:31;95238.75;;;17.03;67.50
82379;BME280;72008;48.140;11.614;2023-09-19T02:10:31;95239.53;;;17.03;68.28
82379;BME280;72008;48.140;11.614;2023-09-19T02:11:32;95243.50;;;17.02;69.75
82379;BME280;72008;48.140;11.614;2023-09-19T02:12:33;95243.50;;;16.99;68.51
82379;BME280;72008;48.140;11.614;2023-09-19T02:13:33;95244.69;;;17.01;68.61
82379;BME280;72008;48.140;11.614;2023-09-19T02:14:33;95245.50;;;17.09;68.67
82379;BME280;72008;48.140;11.614;2023-09-19T02:15:34;95249.44;;;17.12;68.09
82379;BME280;72008;48.140;11.614;2023-09-19T02:16:34;95247.09;;;17.10;67.96
82379;BME280;72008;48.140;11.614;2023-09-19T02:17:35;95243.50;;;17.02;68.24
82379;BME280;72008;48.140;11.614;2023-09-19T02:18:35;95243.50;;;16.95;68.37
82379;BME280;72008;48.140;11.614;2023-09-19T02:19:36;95244.28;;;17.03;68.21
82379;BME280;72008;48.140;11.614;2023-09-19T02:20:36;95242.72;;;17.05;68.46
82379;BME280;72008;48.140;11.614;2023-09-19T02:21:36;95245.13;;;17.07;68.27
82379;BME280;72008;48.140;11.614;2023-09-19T02:22:37;95243.13;;;17.11;67.54
82379;BME280;72008;48.140;11.614;2023-09-19T02:23:37;95239.19;;;17.09;68.28
82379;BME280;72008;48.140;11.614;2023-09-19T02:24:38;95238.38;;;17.08;67.33
82379;BME280;72008;48.140;11.614;2023-09-19T02:25:38;95239.94;;;16.98;67.49
82379;BME280;72008;48.140;11.614;2023-09-19T02:26:39;95240.75;;;17.06;68.09
82379;BME280;72008;48.140;11.614;2023-09-19T02:27:39;95243.50;;;16.95;68.10
82379;BME280;72008;48.140;11.614;2023-09-19T02:28:40;95240.72;;;16.95;68.85
82379;BME280;72008;48.140;11.614;2023-09-19T02:29:40;95240.31;;;16.93;67.64
82379;BME280;72008;48.140;11.614;2023-09-19T02:30:41;95244.66;;;16.87;68.51
82379;BME280;72008;48.140;11.614;2023-09-19T02:31:41;95246.63;;;16.94;67.62
82379;BME280;72008;48.140;11.614;2023-09-19T02:32:41;95244.28;;;16.92;68.11
82379;BME280;72008;48.140;11.614;2023-09-19T02:33:42;95250.22;;;17.01;69.04
82379;BME280;72008;48.140;11.614;2023-09-19T02:34:43;95250.19;;;16.94;68.06
82379;BME280;72008;48.140;11.614;2023-09-19T02:35:43;95244.22;;;16.81;68.81
82379;BME280;72008;48.140;11.614;2023-09-19T02:36:43;95253.34;;;16.89;68.60
82379;BME280;72008;48.140;11.614;2023-09-19T02:37:44;95242.66;;;16.88;68.31
82379;BME280;72008;48.140;11.614;2023-09-19T02:38:44;95243.88;;;16.97;68.55
82379;BME280;72008;48.140;11.614;2023-09-19T02:39:45;95249.41;;;16.94;69.13
82379;BME280;72008;48.140;11.614;2023-09-19T02:40:45;95245.06;;;16.93;69.05
82379;BME280;72008;48.140;11.614;2023-09-19T02:41:45;95244.66;;;16.94;68.83
82379;BME280;72008;48.140;11.614;2023-09-19T02:42:47;95241.91;;;16.94;69.10
82379;BME280;72008;48.140;11.614;2023-09-19T02:43:48;95247.06;;;17.03;68.77
82379;BME280;72008;48.140;11.614;2023-09-19T02:44:48;95251.00;;;17.02;69.36
82379;BME280;72008;48.140;11.614;2023-09-19T02:45:49;95254.94;;;16.97;68.54
82379;BME280;72008;48.140;11.614;2023-09-19T02:46:50;95257.75;;;17.01;69.04
82379;BME280;72008;48.140;11.614;2023-09-19T02:47:50;95251.38;;;17.00;68.79
82379;BME280;72008;48.140;11.614;2023-09-19T02:48:51;95258.13;;;17.03;69.07
82379;BME280;72008;48.140;11.614;2023-09-19T02:49:51;95251.03;;;17.05;69.57
82379;BME280;72008;48.140;11.614;2023-09-19T02:50:52;95254.19;;;17.08;68.52
82379;BME280;72008;48.140;11.614;2023-09-19T02:51:52;95251.84;;;17.10;69.38
82379;BME280;72008;48.140;11.614;2023-09-19T02:52:53;95250.25;;;17.09;68.95
82379;BME280;72008;48.140;11.614;2023-09-19T02:53:53;95243.13;;;17.08;70.31
82379;BME280;72008;48.140;11.614;2023-09-19T02:54:53;95251.03;;;17.09;69.58
82379;BME280;72008;48.140;11.614;2023-09-19T02:55:54;95252.59;;;16.99;69.43
82379;BME280;72008;48.140;11.614;2023-09-19T02:56:54;95258.91;;;17.03;68.47
82379;BME280;72008;48.140;11.614;2023-09-19T02:57:55;95258.13;;;16.99;69.21
82379;BME280;72008;48.140;11.614;2023-09-19T02:58:55;95255.75;;;17.01;68.94
82379;BME280;72008;48.140;11.614;2023-09-19T02:59:56;95260.88;;;17.03;69.33
82379;BME280;72008;48.140;11.614;2023-09-19T03:00:56;95257.34;;;17.02;68.92
82379;BME280;72008;48.140;11.614;2023-09-19T03:01:56;95257.34;;;17.06;68.24
82379;BME280;72008;48.140;11.614;2023-09-19T03:02:57;95252.22;;;17.01;68.60
82379;BME280;72008;48.140;11.614;2023-09-19T03:03:57;95248.63;;;16.93;68.56
82379;BME280;72008;48.140;11.614;2023-09-19T03:04:58;95253.00;;;16.98;69.41
82379;BME280;72008;48.140;11.614;2023-09-19T03:05:58;95251.75;;;16.92;68.57
82379;BME280;72008;48.140;11.614;2023-09-19T03:06:59;95250.94;;;16.80;70.22
82379;BME280;72008;48.140;11.614;2023-09-19T03:07:59;95258.06;;;16.89;70.86
82379;BME280;72008;48.140;11.614;2023-09-19T03:08:59;95261.25;;;16.91;69.05
82379;BME280;72008;48.140;11.614;2023-09-19T03:10:00;95256.91;;;16.93;69.42
82379;BME280;72008;48.140;11.614;2023-09-19T03:11:00;95252.94;;;16.87;69.71
82379;BME280;72008;48.140;11.614;2023-09-19T03:12:01;95247.81;;;16.93;69.36
82379;BME280;72008;48.140;11.614;2023-09-19T03:13:01;95247.00;;;16.85;68.60
82379;BME280;72008;48.140;11.614;2023-09-19T03:14:01;95250.53;;;16.78;69.80
82379;BME280;72008;48.140;11.614;2023-09-19T03:15:02;95245.44;;;16.84;69.13
82379;BME280;72008;48.140;11.614;2023-09-19T03:16:05;95249.78;;;16.89;69.35
82379;BME280;72008;48.140;11.614;2023-09-19T03:17:06;95254.53;;;16.92;68.55
82379;BME280;72008;48.140;11.614;2023-09-19T03:18:06;95248.63;;;16.97;68.82
82379;BME280;72008;48.140;11.614;2023-09-19T03:19:07;95254.91;;;16.87;69.38
82379;BME280;72008;48.140;11.614;2023-09-19T03:20:07;95256.91;;;16.90;69.35
82379;BME280;72008;48.140;11.614;2023-09-19T03:21:08;95246.22;;;16.85;68.40
82379;BME280;72008;48.140;11.614;2023-09-19T03:22:08;95260.03;;;16.81;68.46
82379;BME280;72008;48.140;11.614;2023-09-19T03:23:09;95256.47;;;16.84;69.29
82379;BME280;72008;48.140;11.614;2023-09-19T03:24:09;95250.56;;;16.86;68.45
82379;BME280;72008;48.140;11.614;2023-09-19T03:25:09;95254.50;;;16.85;69.22
82379;BME280;72008;48.140;11.614;2023-09-19T03:26:10;95254.88;;;16.76;68.46
82379;BME280;72008;48.140;11.614;2023-09-19T03:27:11;95261.59;;;16.86;68.25
82379;BME280;72008;48.140;11.614;2023-09-19T03:28:11;95262.00;;;16.84;69.22
82379;BME280;72008;48.140;11.614;2023-09-19T03:29:11;95258.06;;;16.85;68.94
82379;BME280;72008;48.140;11.614;2023-09-19T03:30:12;95258.84;;;16.86;68.32
82379;BME280;72008;48.140;11.614;2023-09-19T03:31:12;95260.41;;;16.79;68.24
82379;BME280;72008;48.140;11.614;2023-09-19T03:32:13;95259.63;;;16.79;68.82
82379;BME280;72008;48.140;11.614;2023-09-19T03:33:13;95262.38;;;16.79;68.73
82379;BME280;72008;48.140;11.614;2023-09-19T03:34:13;95261.19;;;16.80;68.65
82379;BME280;72008;48.140;11.614;2023-09-19T03:35:14;95261.19;;;16.80;69.02
82379;BME280;72008;48.140;11.614;2023-09-19T03:36:14;95262.44;;;16.86;68.51
82379;BME280;72008;48.140;11.614;2023-09-19T03:37:15;95262.44;;;16.90;69.60
82379;BME280;72008;48.140;11.614;2023-09-19T03:38:15;95262.44;;;16.86;69.39
82379;BME280;72008;48.140;11.614;2023-09-19T03:39:16;95257.28;;;16.88;67.87
82379;BME280;72008;48.140;11.614;2023-09-19T03:40:16;95261.19;;;16.80;68.37
82379;BME280;72008;48.140;11.614;2023-09-19T03:41:17;95263.16;;;16.79;67.95
82379;BME280;72008;48.140;11.614;2023-09-19T03:42:17;95268.31;;;16.81;69.36
82379;BME280;72008;48.140;11.614;2023-09-19T03:43:17;95265.16;;;16.82;68.72
82379;BME280;72008;48.140;11.614;2023-09-19T03:44:18;95266.34;;;16.81;67.39
82379;BME280;72008;48.140;11.614;2023-09-19T03:45:18;95269.47;;;16.76;67.70
82379;BME280;72008;48.140;11.614;2023-09-19T03:46:19;95269.09;;;16.81;68.62
82379;BME280;72008;48.140;11.614;2023-09-19T03:47:19;95272.66;;;16.82;68.05
82379;BME280;72008;48.140;11.614;2023-09-19T03:48:19;95267.50;;;16.77;68.22
82379;BME280;72008;48.140;11.614;2023-09-19T03:49:20;95265.09;;;16.75;67.79
82379;BME280;72008;48.140;11.614;2023-09-19T03:50:20;95271.47;;;16.79;68.48
82379;BME280;72008;48.140;11.614;2023-09-19T03:51:21;95274.63;;;16.78;67.97
82379;BME280;72008;48.140;11.614;2023-09-19T03:52:21;95269.09;;;16.78;68.76
82379;BME280;72008;48.140;11.614;2023-09-19T03:53:21;95268.69;;;16.79;67.67
82379;BME280;72008;48.140;11.614;2023-09-19T03:54:22;95273.03;;;16.77;68.63
82379;BME280;72008;48.140;11.614;2023-09-19T03:55:22;95272.66;;;16.82;68.54
82379;BME280;72008;48.140;11.614;2023-09-19T03:56:23;95270.63;;;16.75;67.39
82379;BME280;72008;48.140;11.614;2023-09-19T03:57:23;95278.50;;;16.73;68.16
82379;BME280;72008;48.140;11.614;2023-09-19T03:58:23;95271.41;;;16.72;68.46
82379;BME280;72008;48.140;11.614;2023-09-19T03:59:24;95276.16;;;16.72;68.82
82379;BME280;72008;48.140;11.614;2023-09-19T04:00:24;95268.31;;;16.77;67.56
82379;BME280;72008;48.140;11.614;2023-09-19T04:01:25;95279.38;;;16.81;67.36
82379;BME280;72008;48.140;11.614;2023-09-19T04:02:25;95271.47;;;16.79;67.94
82379;BME280;72008;48.140;11.614;2023-09-19T04:03:25;95273.44;;;16.82;68.42
82379;BME280;72008;48.140;11.614;2023-09-19T04:04:26;95275.06;;;16.87;67.21
82379;BME280;72008;48.140;11.614;2023-09-19T04:05:26;95275.03;;;16.83;67.14
82379;BME280;72008;48.140;11.614;2023-09-19T04:06:27;95272.28;;;16.83;68.14
82379;BME280;72008;48.140;11.614;2023-09-19T04:07:27;95273.84;;;16.85;67.03
82379;BME280;72008;48.140;11.614;2023-09-19T04:08:27;95270.66;;;16.79;68.10
82379;BME280;72008;48.140;11.614;2023-09-19T04:09:28;95272.28;;;16.83;67.88
82379;BME280;72008;48.140;11.614;2023-09-19T04:10:28;95270.69;;;16.82;67.91
82379;BME280;72008;48.140;11.614;2023-09-19T04:11:29;95273.44;;;16.79;67.26
82379;BME280;72008;48.140;11.614;2023-09-19T04:12:30;95275.81;;;16.80;67.85
82379;BME280;72008;48.140;11.614;2023-09-19T04:13:30;95272.22;;;16.76;66.68
82379;BME280;72008;48.140;11.614;2023-09-19T04:14:31;95284.06;;;16.77;66.92
82379;BME280;72008;48.140;11.614;2023-09-19T04:15:31;95276.19;;;16.79;68.28
82379;BME280;72008;48.140;11.614;2023-09-19T04:16:31;95276.16;;;16.75;68.26
82379;BME280;72008;48.140;11.614;2023-09-19T04:17:32;95271.88;;;16.81;67.51
82379;BME280;72008;48.140;11.614;2023-09-19T04:18:33;95284.44;;;16.75;66.90
82379;BME280;72008;48.140;11.614;2023-09-19T04:19:33;95274.63;;;16.78;67.67
82379;BME280;72008;48.140;11.614;2023-09-19T04:20:34;95276.91;;;16.69;68.08
82379;BME280;72008;48.140;11.614;2023-09-19T04:21:34;95290.75;;;16.72;67.45
82379;BME280;72008;48.140;11.614;2023-09-19T04:22:35;95283.66;;;16.75;68.23
82379;BME280;72008;48.140;11.614;2023-09-19T04:23:35;95285.22;;;16.72;68.15
82379;BME280;72008;48.140;11.614;2023-09-19T04:24:35;95288.41;;;16.74;67.46
82379;BME280;72008;48.140;11.614;2023-09-19T04:25:36;95289.19;;;16.71;67.25
82379;BME280;72008;48.140;11.614;2023-09-19T04:26:36;95294.34;;;16.76;67.52
82379;BME280;72008;48.140;11.614;2023-09-19T04:27:37;95291.16;;;16.74;68.26
82379;BME280;72008;48.140;11.614;2023-09-19T04:28:38;95279.38;;;16.77;67.92
82379;BME280;72008;48.140;11.614;2023-09-19T04:29:38;95290.41;;;16.77;68.45
82379;BME280;72008;48.140;11.614;2023-09-19T04:30:38;95285.63;;;16.74;66.93
82379;BME280;72008;48.140;11.614;2023-09-19T04:31:40;95291.50;;;16.66;67.45
82379;BME280;72008;48.140;11.614;2023-09-19T04:32:41;95292.72;;;16.72;68.22
82379;BME280;72008;48.140;11.614;2023-09-19T04:33:41;95295.09;;;16.70;68.06
82379;BME280;72008;48.140;11.614;2023-09-19T04:34:42;95293.88;;;16.67;67.74
82379;BME280;72008;48.140;11.614;2023-09-19T04:35:42;95296.28;;;16.72;67.28
82379;BME280;72008;48.140;11.614;2023-09-19T04:36:43;95292.72;;;16.72;67.44
82379;BME280;72008;48.140;11.614;2023-09-19T04:37:43;95300.59;;;16.63;67.19
82379;BME280;72008;48.140;11.614;2023-09-19T04:38:44;95304.91;;;16.64;67.95
82379;BME280;72008;48.140;11.614;2023-09-19T04:39:44;95304.13;;;16.63;68.56
82379;BME280;72008;48.140;11.614;2023-09-19T04:40:45;95304.91;;;16.64;67.80
82379;BME280;72008;48.140;11.614;2023-09-19T04:41:45;95309.66;;;16.63;67.28
82379;BME280;72008;48.140;11.614;2023-09-19T04:42:53;95310.03;;;16.65;68.21
82379;BME280;72008;48.140;11.614;2023-09-19T04:43:54;95313.22;;;16.67;67.02
82379;BME280;72008;48.140;11.614;2023-09-19T04:44:54;95305.34;;;16.69;67.79
82379;BME280;72008;48.140;11.614;2023-09-19T04:45:54;95308.47;;;16.64;68.63
82379;BME280;72008;48.140;11.614;2023-09-19T04:46:55;95311.66;;;16.66;66.89
82379;BME280;72008;48.140;11.614;2023-09-19T04:47:55;95314.81;;;16.68;67.42
82379;BME280;72008;48.140;11.614;2023-09-19T04:48:56;95307.69;;;16.64;68.17
82379;BME280;72008;48.140;11.614;2023-09-19T04:49:56;95317.13;;;16.59;67.25
82379;BME280;72008;48.140;11.614;2023-09-19T04:50:56;95315.91;;;16.53;68.13
82379;BME280;72008;48.140;11.614;2023-09-19T04:51:57;95326.59;;;16.54;68.23
82379;BME280;72008;48.140;11.614;2023-09-19T04:52:57;95313.56;;;16.55;67.52
82379;BME280;72008;48.140;11.614;2023-09-19T04:53:58;95313.56;;;16.55;67.90
82379;BME280;72008;48.140;11.614;2023-09-19T04:54:58;95325.03;;;16.57;68.16
82379;BME280;72008;48.140;11.614;2023-09-19T04:55:59;95318.72;;;16.56;66.93
82379;BME280;72008;48.140;11.614;2023-09-19T04:56:59;95324.25;;;16.60;67.25
82379;BME280;72008;48.140;11.614;2023-09-19T04:58:00;95320.72;;;16.63;67.37
82379;BME280;72008;48.140;11.614;2023-09-19T04:59:00;95326.59;;;16.54;67.26
82379;BME280;72008;48.140;11.614;2023-09-19T05:00:00;95319.06;;;16.55;68.10
82379;BME280;72008;48.140;11.614;2023-09-19T05:01:01;95330.56;;;16.60;67.27
82379;BME280;72008;48.140;11.614;2023-09-19T05:02:01;95329.38;;;16.61;67.12
82379;BME280;72008;48.140;11.614;2023-09-19T05:03:02;95327.81;;;16.64;67.85
82379;BME280;72008;48.140;11.614;2023-09-19T05:04:02;95329.00;;;16.63;67.97
82379;BME280;72008;48.140;11.614;2023-09-19T05:05:03;95331.78;;;16.67;66.85
82379;BME280;72008;48.140;11.614;2023-09-19T05:06:03;95332.94;;;16.62;67.79
82379;BME280;72008;48.140;11.614;2023-09-19T05:07:04;95340.81;;;16.60;67.86
82379;BME280;72008;48.140;11.614;2023-09-19T05:08:04;95340.84;;;16.64;67.73
82379;BME280;72008;48.140;11.614;2023-09-19T05:09:05;95342.41;;;16.61;67.38
82379;BME280;72008;48.140;11.614;2023-09-19T05:10:06;95341.22;;;16.62;68.02
82379;BME280;72008;48.140;11.614;2023-09-19T05:11:06;95344.81;;;16.66;67.43
82379;BME280;72008;48.140;11.614;2023-09-19T05:12:07;95348.00;;;16.68;67.08
82379;BME280;72008;48.140;11.614;2023-09-19T05:13:07;95348.72;;;16.65;67.07
82379;BME280;72008;48.140;11.614;2023-09-19T05:14:07;95347.16;;;16.64;67.03
82379;BME280;72008;48.140;11.614;2023-09-19T05:15:08;95346.81;;;16.69;66.16
82379;BME280;72008;48.140;11.614;2023-09-19T05:16:08;95348.00;;;16.68;66.88
82379;BME280;72008;48.140;11.614;2023-09-19T05:17:09;95343.25;;;16.72;66.26
82379;BME280;72008;48.140;11.614;2023-09-19T05:18:09;95356.28;;;16.68;65.76
82379;BME280;72008;48.140;11.614;2023-09-19T05:19:10;95351.91;;;16.64;67.07
82379;BME280;72008;48.140;11.614;2023-09-19T05:20:10;95351.53;;;16.69;67.50
82379;BME280;72008;48.140;11.614;2023-09-19T05:21:11;95357.41;;;16.64;67.51
82379;BME280;72008;48.140;11.614;2023-09-19T05:22:11;95352.69;;;16.64;67.50
82379;BME280;72008;48.140;11.614;2023-09-19T05:23:12;95355.84;;;16.63;67.67
82379;BME280;72008;48.140;11.614;2023-09-19T05:24:12;95347.19;;;16.68;67.05
82379;BME280;72008;48.140;11.614;2023-09-19T05:25:13;95361.00;;;16.68;66.95
82379;BME280;72008;48.140;11.614;2023-09-19T05:26:13;95362.59;;;16.69;66.23
82379;BME280;72008;48.140;11.614;2023-09-19T05:27:14;95360.22;;;16.67;66.64
82379;BME280;72008;48.140;11.614;2023-09-19T05:28:15;95367.38;;;16.75;66.38
82379;BME280;72008;48.140;11.614;2023-09-19T05:29:15;95365.75;;;16.71;66.52
82379;BME280;72008;48.140;11.614;2023-09-19T05:30:15;95362.19;;;16.70;67.16
82379;BME280;72008;48.140;11.614;2023-09-19T05:31:16;95371.25;;;16.67;67.31
82379;BME280;72008;48.140;11.614;2023-09-19T05:32:16;95355.88;;;16.66;67.54
82379;BME280;72008;48.140;11.614;2023-09-19T05:33:17;95366.53;;;16.68;67.37
82379;BME280;72008;48.140;11.614;2023-09-19T05:34:17;95366.94;;;16.70;67.37
82379;BME280;72008;48.140;11.614;2023-09-19T05:35:17;95362.97;;;16.71;67.34
82379;BME280;72008;48.140;11.614;2023-09-19T05:36:18;95368.13;;;16.72;66.91
82379;BME280;72008;48.140;11.614;2023-09-19T05:37:19;95368.50;;;16.67;67.05
82379;BME280;72008;48.140;11.614;2023-09-19T05:38:19;95353.88;;;16.67;67.17